sensor_id;sensor_type;location;lat;lon;timestamp;P1;durP1;ratioP1;P2;durP2;ratioP2
45368;SDS011;51342;55.250;37.668;2022-12-18T00:00:52;17.27;;;8.13;;
45368;SDS011;51342;55.250;37.668;2022-12-18T00:03:24;18.30;;;9.37;;
45368;SDS011;51342;55.250;37.668;2022-12-18T00:05:56;16.43;;;9.87;;
45368;SDS011;51342;55.250;37.668;2022-12-18T00:08:27;17.47;;;8.80;;
45368;SDS011;51342;55.250;37.668;2022-12-18T00:11:11;19.77;;;9.20;;
45368;SDS011;51342;55.250;37.668;2022-12-18T00:13:44;17.07;;;9.37;;
45368;SDS011;51342;55.250;37.668;2022-12-18T00:16:20;15.97;;;8.30;;
45368;SDS011;51342;55.250;37.668;2022-12-18T00:21:28;16.97;;;8.40;;
45368;SDS011;51342;55.250;37.668;2022-12-18T00:24:01;13.47;;;7.23;;
45368;SDS011;51342;55.250;37.668;2022-12-18T00:26:34;16.40;;;8.43;;
45368;SDS011;51342;55.250;37.668;2022-12-18T00:29:09;15.50;;;8.53;;
45368;SDS011;51342;55.250;37.668;2022-12-18T00:31:42;16.80;;;8.20;;
45368;SDS011;51342;55.250;37.668;2022-12-18T00:34:14;14.43;;;8.10;;
45368;SDS011;51342;55.250;37.668;2022-12-18T00:36:47;17.23;;;9.00;;
45368;SDS011;51342;55.250;37.668;2022-12-18T00:39:19;11.40;;;5.33;;
45368;SDS011;51342;55.250;37.668;2022-12-18T00:41:50;16.47;;;8.37;;
45368;SDS011;51342;55.250;37.668;2022-12-18T00:44:40;15.80;;;8.17;;
45368;SDS011;51342;55.250;37.668;2022-12-18T00:47:11;14.47;;;7.63;;
45368;SDS011;51342;55.250;37.668;2022-12-18T00:49:43;11.30;;;6.50;;
45368;SDS011;51342;55.250;37.668;2022-12-18T00:52:14;14.87;;;7.53;;
45368;SDS011;51342;55.250;37.668;2022-12-18T00:54:45;17.13;;;8.57;;
45368;SDS011;51342;55.250;37.668;2022-12-18T00:57:17;13.23;;;7.80;;
45368;SDS011;51342;55.250;37.668;2022-12-18T00:59:48;16.50;;;9.03;;
45368;SDS011;51342;55.250;37.668;2022-12-18T01:02:20;14.47;;;8.00;;
45368;SDS011;51342;55.250;37.668;2022-12-18T01:04:51;15.63;;;8.03;;
45368;SDS011;51342;55.250;37.668;2022-12-18T01:07:24;14.03;;;7.60;;
45368;SDS011;51342;55.250;37.668;2022-12-18T01:09:55;14.47;;;7.37;;
45368;SDS011;51342;55.250;37.668;2022-12-18T01:12:27;13.87;;;7.57;;
45368;SDS011;51342;55.250;37.668;2022-12-18T01:14:58;13.87;;;8.17;;
45368;SDS011;51342;55.250;37.668;2022-12-18T01:17:30;16.10;;;7.83;;
45368;SDS011;51342;55.250;37.668;2022-12-18T01:20:01;16.27;;;8.43;;
45368;SDS011;51342;55.250;37.668;2022-12-18T01:22:34;16.23;;;8.30;;
45368;SDS011;51342;55.250;37.668;2022-12-18T01:25:06;12.77;;;6.63;;
45368;SDS011;51342;55.250;37.668;2022-12-18T01:27:38;16.43;;;8.07;;
45368;SDS011;51342;55.250;37.668;2022-12-18T01:30:09;13.97;;;7.70;;
45368;SDS011;51342;55.250;37.668;2022-12-18T01:32:41;14.10;;;7.83;;
45368;SDS011;51342;55.250;37.668;2022-12-18T01:35:13;15.03;;;6.80;;
45368;SDS011;51342;55.250;37.668;2022-12-18T01:37:44;12.43;;;7.07;;
45368;SDS011;51342;55.250;37.668;2022-12-18T01:40:16;13.67;;;7.43;;
45368;SDS011;51342;55.250;37.668;2022-12-18T01:42:53;12.83;;;6.87;;
45368;SDS011;51342;55.250;37.668;2022-12-18T01:45:27;12.47;;;6.13;;
45368;SDS011;51342;55.250;37.668;2022-12-18T01:48:00;11.83;;;6.87;;
45368;SDS011;51342;55.250;37.668;2022-12-18T01:50:36;12.80;;;6.83;;
45368;SDS011;51342;55.250;37.668;2022-12-18T01:59:32;10.73;;;5.77;;
45368;SDS011;51342;55.250;37.668;2022-12-18T02:02:04;12.87;;;6.97;;
45368;SDS011;51342;55.250;37.668;2022-12-18T02:04:37;10.97;;;6.53;;
45368;SDS011;51342;55.250;37.668;2022-12-18T02:07:14;11.93;;;6.47;;
45368;SDS011;51342;55.250;37.668;2022-12-18T02:09:59;12.43;;;6.17;;
45368;SDS011;51342;55.250;37.668;2022-12-18T02:15:36;12.13;;;7.17;;
45368;SDS011;51342;55.250;37.668;2022-12-18T02:18:18;12.00;;;6.47;;
45368;SDS011;51342;55.250;37.668;2022-12-18T02:26:37;10.40;;;5.73;;
45368;SDS011;51342;55.250;37.668;2022-12-18T02:29:18;13.20;;;7.20;;
45368;SDS011;51342;55.250;37.668;2022-12-18T02:31:56;13.07;;;6.83;;
45368;SDS011;51342;55.250;37.668;2022-12-18T05:54:50;12.37;;;6.30;;
45368;SDS011;51342;55.250;37.668;2022-12-18T05:57:22;9.57;;;5.10;;
45368;SDS011;51342;55.250;37.668;2022-12-18T05:59:53;10.47;;;5.27;;
45368;SDS011;51342;55.250;37.668;2022-12-18T06:02:25;12.77;;;7.20;;
45368;SDS011;51342;55.250;37.668;2022-12-18T06:04:56;12.40;;;6.43;;
45368;SDS011;51342;55.250;37.668;2022-12-18T06:07:27;17.63;;;9.33;;
45368;SDS011;51342;55.250;37.668;2022-12-18T06:09:59;16.43;;;9.40;;
45368;SDS011;51342;55.250;37.668;2022-12-18T06:12:31;12.57;;;6.20;;
45368;SDS011;51342;55.250;37.668;2022-12-18T06:15:04;11.40;;;7.60;;
45368;SDS011;51342;55.250;37.668;2022-12-18T06:17:36;11.10;;;6.37;;
45368;SDS011;51342;55.250;37.668;2022-12-18T06:20:08;9.37;;;5.20;;
45368;SDS011;51342;55.250;37.668;2022-12-18T06:22:40;12.20;;;6.03;;
45368;SDS011;51342;55.250;37.668;2022-12-18T06:25:11;8.60;;;5.03;;
45368;SDS011;51342;55.250;37.668;2022-12-18T06:27:43;9.57;;;5.80;;
45368;SDS011;51342;55.250;37.668;2022-12-18T06:30:15;11.47;;;5.77;;
45368;SDS011;51342;55.250;37.668;2022-12-18T06:32:47;10.27;;;5.80;;
45368;SDS011;51342;55.250;37.668;2022-12-18T06:35:19;15.80;;;8.97;;
45368;SDS011;51342;55.250;37.668;2022-12-18T06:37:51;11.40;;;7.70;;
45368;SDS011;51342;55.250;37.668;2022-12-18T06:40:23;10.93;;;6.80;;
45368;SDS011;51342;55.250;37.668;2022-12-18T06:42:55;10.87;;;5.93;;
45368;SDS011;51342;55.250;37.668;2022-12-18T06:45:27;9.37;;;5.37;;
45368;SDS011;51342;55.250;37.668;2022-12-18T06:47:59;10.57;;;5.10;;
45368;SDS011;51342;55.250;37.668;2022-12-18T06:50:30;9.93;;;5.40;;
45368;SDS011;51342;55.250;37.668;2022-12-18T06:53:02;8.37;;;5.33;;
45368;SDS011;51342;55.250;37.668;2022-12-18T06:55:34;10.70;;;5.83;;
45368;SDS011;51342;55.250;37.668;2022-12-18T06:58:06;8.70;;;5.90;;
45368;SDS011;51342;55.250;37.668;2022-12-18T07:00:38;8.63;;;5.40;;
45368;SDS011;51342;55.250;37.668;2022-12-18T07:03:10;8.60;;;5.00;;
45368;SDS011;51342;55.250;37.668;2022-12-18T07:05:41;8.80;;;5.50;;
45368;SDS011;51342;55.250;37.668;2022-12-18T07:08:13;9.43;;;5.43;;
45368;SDS011;51342;55.250;37.668;2022-12-18T07:10:45;9.87;;;5.73;;
45368;SDS011;51342;55.250;37.668;2022-12-18T07:13:17;8.80;;;5.17;;
45368;SDS011;51342;55.250;37.668;2022-12-18T07:15:49;9.40;;;4.90;;
45368;SDS011;51342;55.250;37.668;2022-12-18T07:18:22;8.97;;;5.13;;
45368;SDS011;51342;55.250;37.668;2022-12-18T07:20:54;11.00;;;6.03;;
45368;SDS011;51342;55.250;37.668;2022-12-18T07:23:27;9.67;;;5.27;;
45368;SDS011;51342;55.250;37.668;2022-12-18T07:26:03;10.10;;;5.53;;
45368;SDS011;51342;55.250;37.668;2022-12-18T07:28:36;7.07;;;4.87;;
45368;SDS011;51342;55.250;37.668;2022-12-18T07:31:10;10.17;;;5.40;;
45368;SDS011;51342;55.250;37.668;2022-12-18T07:33:45;8.73;;;5.10;;
45368;SDS011;51342;55.250;37.668;2022-12-18T07:36:18;9.67;;;5.83;;
45368;SDS011;51342;55.250;37.668;2022-12-18T07:38:53;8.27;;;5.27;;
45368;SDS011;51342;55.250;37.668;2022-12-18T07:41:25;10.00;;;6.30;;
45368;SDS011;51342;55.250;37.668;2022-12-18T07:43:57;9.77;;;6.17;;
45368;SDS011;51342;55.250;37.668;2022-12-18T07:46:29;9.23;;;5.40;;
45368;SDS011;51342;55.250;37.668;2022-12-18T07:49:02;10.17;;;5.30;;
45368;SDS011;51342;55.250;37.668;2022-12-18T07:51:34;9.80;;;5.00;;
45368;SDS011;51342;55.250;37.668;2022-12-18T07:54:07;8.03;;;5.07;;
45368;SDS011;51342;55.250;37.668;2022-12-18T07:56:39;11.03;;;5.83;;
45368;SDS011;51342;55.250;37.668;2022-12-18T07:59:11;8.53;;;5.30;;
45368;SDS011;51342;55.250;37.668;2022-12-18T08:01:43;9.80;;;5.53;;
45368;SDS011;51342;55.250;37.668;2022-12-18T08:04:15;10.43;;;5.20;;
45368;SDS011;51342;55.250;37.668;2022-12-18T08:06:47;10.47;;;5.67;;
45368;SDS011;51342;55.250;37.668;2022-12-18T08:09:18;9.93;;;5.63;;
45368;SDS011;51342;55.250;37.668;2022-12-18T08:11:51;9.50;;;5.27;;
45368;SDS011;51342;55.250;37.668;2022-12-18T08:14:24;8.97;;;5.57;;
45368;SDS011;51342;55.250;37.668;2022-12-18T08:16:56;11.80;;;5.53;;
45368;SDS011;51342;55.250;37.668;2022-12-18T08:19:29;10.77;;;7.10;;
45368;SDS011;51342;55.250;37.668;2022-12-18T08:22:01;11.43;;;6.33;;
45368;SDS011;51342;55.250;37.668;2022-12-18T08:24:35;9.03;;;5.57;;
45368;SDS011;51342;55.250;37.668;2022-12-18T08:27:08;9.33;;;5.70;;
45368;SDS011;51342;55.250;37.668;2022-12-18T08:29:40;11.03;;;6.73;;
45368;SDS011;51342;55.250;37.668;2022-12-18T08:32:12;9.10;;;3.83;;
45368;SDS011;51342;55.250;37.668;2022-12-18T08:34:45;9.30;;;5.70;;
45368;SDS011;51342;55.250;37.668;2022-12-18T08:37:17;8.20;;;4.87;;
45368;SDS011;51342;55.250;37.668;2022-12-18T08:39:49;9.43;;;5.37;;
45368;SDS011;51342;55.250;37.668;2022-12-18T08:42:22;9.57;;;5.83;;
45368;SDS011;51342;55.250;37.668;2022-12-18T08:45:14;7.57;;;4.23;;
45368;SDS011;51342;55.250;37.668;2022-12-18T08:47:48;10.80;;;5.30;;
45368;SDS011;51342;55.250;37.668;2022-12-18T08:50:20;11.30;;;6.40;;
45368;SDS011;51342;55.250;37.668;2022-12-18T08:52:52;8.60;;;5.03;;
45368;SDS011;51342;55.250;37.668;2022-12-18T08:55:25;10.53;;;5.37;;
45368;SDS011;51342;55.250;37.668;2022-12-18T08:57:58;10.90;;;5.53;;
45368;SDS011;51342;55.250;37.668;2022-12-18T09:00:30;8.37;;;4.83;;
45368;SDS011;51342;55.250;37.668;2022-12-18T09:03:04;11.03;;;5.93;;
45368;SDS011;51342;55.250;37.668;2022-12-18T09:05:37;9.97;;;5.73;;
45368;SDS011;51342;55.250;37.668;2022-12-18T09:08:09;8.47;;;4.37;;
45368;SDS011;51342;55.250;37.668;2022-12-18T09:10:47;11.10;;;5.60;;
45368;SDS011;51342;55.250;37.668;2022-12-18T09:13:22;9.17;;;5.03;;
45368;SDS011;51342;55.250;37.668;2022-12-18T09:15:56;9.77;;;5.17;;
45368;SDS011;51342;55.250;37.668;2022-12-18T09:18:31;8.07;;;5.50;;
45368;SDS011;51342;55.250;37.668;2022-12-18T09:21:18;9.40;;;5.80;;
45368;SDS011;51342;55.250;37.668;2022-12-18T09:23:51;9.70;;;5.60;;
45368;SDS011;51342;55.250;37.668;2022-12-18T09:26:28;10.00;;;5.43;;
45368;SDS011;51342;55.250;37.668;2022-12-18T09:29:05;10.77;;;5.70;;
45368;SDS011;51342;55.250;37.668;2022-12-18T09:31:42;10.23;;;6.00;;
45368;SDS011;51342;55.250;37.668;2022-12-18T09:34:16;9.40;;;5.37;;
45368;SDS011;51342;55.250;37.668;2022-12-18T09:36:47;10.60;;;5.53;;
45368;SDS011;51342;55.250;37.668;2022-12-18T09:39:23;9.87;;;5.57;;
45368;SDS011;51342;55.250;37.668;2022-12-18T09:41:57;13.87;;;7.83;;
45368;SDS011;51342;55.250;37.668;2022-12-18T09:50:15;9.63;;;5.83;;
45368;SDS011;51342;55.250;37.668;2022-12-18T09:52:53;10.57;;;6.00;;
45368;SDS011;51342;55.250;37.668;2022-12-18T09:55:39;8.27;;;5.13;;
45368;SDS011;51342;55.250;37.668;2022-12-18T10:01:00;8.53;;;3.87;;
45368;SDS011;51342;55.250;37.668;2022-12-18T10:03:43;9.80;;;5.93;;
45368;SDS011;51342;55.250;37.668;2022-12-18T10:06:21;10.00;;;4.95;;
45368;SDS011;51342;55.250;37.668;2022-12-18T10:11:58;8.83;;;5.00;;
45368;SDS011;51342;55.250;37.668;2022-12-18T10:15:00;10.07;;;5.60;;
45368;SDS011;51342;55.250;37.668;2022-12-18T10:17:52;10.57;;;5.73;;
45368;SDS011;51342;55.250;37.668;2022-12-18T10:26:02;8.83;;;5.13;;
45368;SDS011;51342;55.250;37.668;2022-12-18T10:28:40;9.60;;;4.90;;
45368;SDS011;51342;55.250;37.668;2022-12-18T10:31:16;8.90;;;4.80;;
45368;SDS011;51342;55.250;37.668;2022-12-18T10:33:53;8.15;;;4.97;;
45368;SDS011;51342;55.250;37.668;2022-12-18T10:36:28;8.57;;;5.47;;
45368;SDS011;51342;55.250;37.668;2022-12-18T10:39:19;9.43;;;5.30;;
45368;SDS011;51342;55.250;37.668;2022-12-18T10:44:57;8.70;;;4.93;;
45368;SDS011;51342;55.250;37.668;2022-12-18T10:47:34;8.47;;;5.43;;
45368;SDS011;51342;55.250;37.668;2022-12-18T10:50:29;8.75;;;5.57;;
45368;SDS011;51342;55.250;37.668;2022-12-18T10:53:14;8.63;;;4.90;;
45368;SDS011;51342;55.250;37.668;2022-12-18T10:55:53;9.57;;;5.70;;
45368;SDS011;51342;55.250;37.668;2022-12-18T10:58:33;8.30;;;5.13;;
45368;SDS011;51342;55.250;37.668;2022-12-18T11:06:23;8.18;;;5.78;;
45368;SDS011;51342;55.250;37.668;2022-12-18T11:11:35;10.65;;;5.80;;
45368;SDS011;51342;55.250;37.668;2022-12-18T11:14:15;9.17;;;4.73;;
45368;SDS011;51342;55.250;37.668;2022-12-18T11:16:53;8.70;;;5.17;;
45368;SDS011;51342;55.250;37.668;2022-12-18T11:19:32;12.13;;;5.07;;
45368;SDS011;51342;55.250;37.668;2022-12-18T11:22:21;10.73;;;5.70;;
45368;SDS011;51342;55.250;37.668;2022-12-18T11:27:39;10.57;;;5.68;;
45368;SDS011;51342;55.250;37.668;2022-12-18T11:35:53;11.00;;;5.40;;
45368;SDS011;51342;55.250;37.668;2022-12-18T11:38:34;9.70;;;5.03;;
45368;SDS011;51342;55.250;37.668;2022-12-18T11:44:52;9.77;;;5.33;;
45368;SDS011;51342;55.250;37.668;2022-12-18T11:47:33;8.97;;;5.17;;
45368;SDS011;51342;55.250;37.668;2022-12-18T11:50:24;9.07;;;5.30;;
45368;SDS011;51342;55.250;37.668;2022-12-18T11:53:01;8.80;;;5.20;;
45368;SDS011;51342;55.250;37.668;2022-12-18T11:55:37;12.60;;;5.33;;
45368;SDS011;51342;55.250;37.668;2022-12-18T11:58:46;8.80;;;4.60;;
45368;SDS011;51342;55.250;37.668;2022-12-18T12:01:47;10.87;;;5.37;;
45368;SDS011;51342;55.250;37.668;2022-12-18T12:04:40;8.18;;;5.22;;
45368;SDS011;51342;55.250;37.668;2022-12-18T12:07:30;10.57;;;5.03;;
45368;SDS011;51342;55.250;37.668;2022-12-18T12:16:16;9.35;;;5.20;;
45368;SDS011;51342;55.250;37.668;2022-12-18T12:21:58;11.53;;;5.30;;
45368;SDS011;51342;55.250;37.668;2022-12-18T12:25:03;8.97;;;5.27;;
45368;SDS011;51342;55.250;37.668;2022-12-18T12:27:47;11.27;;;5.77;;
45368;SDS011;51342;55.250;37.668;2022-12-18T12:30:57;9.40;;;5.33;;
45368;SDS011;51342;55.250;37.668;2022-12-18T12:39:40;9.07;;;5.27;;
45368;SDS011;51342;55.250;37.668;2022-12-18T12:42:25;11.80;;;6.20;;
45368;SDS011;51342;55.250;37.668;2022-12-18T12:45:49;8.27;;;4.63;;
45368;SDS011;51342;55.250;37.668;2022-12-18T12:48:53;10.27;;;5.20;;
45368;SDS011;51342;55.250;37.668;2022-12-18T12:51:30;10.87;;;5.23;;
45368;SDS011;51342;55.250;37.668;2022-12-18T12:54:19;9.77;;;5.27;;
45368;SDS011;51342;55.250;37.668;2022-12-18T12:59:34;10.00;;;4.50;;
45368;SDS011;51342;55.250;37.668;2022-12-18T13:07:54;10.23;;;4.80;;
45368;SDS011;51342;55.250;37.668;2022-12-18T13:10:38;11.77;;;5.20;;
45368;SDS011;51342;55.250;37.668;2022-12-18T13:13:14;9.50;;;4.93;;
45368;SDS011;51342;55.250;37.668;2022-12-18T13:16:03;10.47;;;4.87;;
45368;SDS011;51342;55.250;37.668;2022-12-18T13:21:18;9.07;;;4.63;;
45368;SDS011;51342;55.250;37.668;2022-12-18T13:23:55;8.47;;;4.17;;
45368;SDS011;51342;55.250;37.668;2022-12-18T13:26:31;8.27;;;4.80;;
45368;SDS011;51342;55.250;37.668;2022-12-18T13:29:03;10.70;;;5.50;;
45368;SDS011;51342;55.250;37.668;2022-12-18T13:34:17;10.20;;;5.67;;
45368;SDS011;51342;55.250;37.668;2022-12-18T13:40:25;10.17;;;5.40;;
45368;SDS011;51342;55.250;37.668;2022-12-18T13:49:16;11.63;;;5.43;;
45368;SDS011;51342;55.250;37.668;2022-12-18T13:51:56;11.03;;;5.67;;
45368;SDS011;51342;55.250;37.668;2022-12-18T13:54:35;10.00;;;5.37;;
45368;SDS011;51342;55.250;37.668;2022-12-18T13:57:29;12.00;;;5.63;;
45368;SDS011;51342;55.250;37.668;2022-12-18T14:02:51;11.13;;;5.67;;
45368;SDS011;51342;55.250;37.668;2022-12-18T14:05:26;9.93;;;5.20;;
45368;SDS011;51342;55.250;37.668;2022-12-18T14:08:10;8.97;;;5.37;;
45368;SDS011;51342;55.250;37.668;2022-12-18T14:10:50;9.50;;;5.33;;
45368;SDS011;51342;55.250;37.668;2022-12-18T14:13:29;9.10;;;5.23;;
45368;SDS011;51342;55.250;37.668;2022-12-18T14:16:04;10.40;;;5.70;;
45368;SDS011;51342;55.250;37.668;2022-12-18T14:18:54;9.03;;;5.27;;
45368;SDS011;51342;55.250;37.668;2022-12-18T14:21:33;10.33;;;5.43;;
45368;SDS011;51342;55.250;37.668;2022-12-18T14:24:18;9.50;;;5.53;;
45368;SDS011;51342;55.250;37.668;2022-12-18T14:26:56;10.40;;;5.33;;
45368;SDS011;51342;55.250;37.668;2022-12-18T14:29:53;8.57;;;4.70;;
45368;SDS011;51342;55.250;37.668;2022-12-18T14:32:27;9.20;;;4.77;;
45368;SDS011;51342;55.250;37.668;2022-12-18T14:35:12;10.23;;;5.00;;
45368;SDS011;51342;55.250;37.668;2022-12-18T14:37:46;10.97;;;4.93;;
45368;SDS011;51342;55.250;37.668;2022-12-18T14:40:22;9.57;;;4.27;;
45368;SDS011;51342;55.250;37.668;2022-12-18T14:42:59;10.90;;;5.03;;
45368;SDS011;51342;55.250;37.668;2022-12-18T14:45:33;11.20;;;4.87;;
45368;SDS011;51342;55.250;37.668;2022-12-18T14:53:21;11.30;;;5.57;;
45368;SDS011;51342;55.250;37.668;2022-12-18T14:56:20;11.40;;;5.40;;
45368;SDS011;51342;55.250;37.668;2022-12-18T14:58:59;15.33;;;5.73;;
45368;SDS011;51342;55.250;37.668;2022-12-18T15:01:37;15.97;;;6.00;;
45368;SDS011;51342;55.250;37.668;2022-12-18T15:04:32;15.30;;;6.60;;
45368;SDS011;51342;55.250;37.668;2022-12-18T15:18:14;14.97;;;6.43;;
45368;SDS011;51342;55.250;37.668;2022-12-18T15:20:54;17.37;;;7.77;;
45368;SDS011;51342;55.250;37.668;2022-12-18T15:26:07;15.17;;;7.90;;
45368;SDS011;51342;55.250;37.668;2022-12-18T15:36:43;13.80;;;7.03;;
45368;SDS011;51342;55.250;37.668;2022-12-18T15:39:22;14.77;;;6.93;;
45368;SDS011;51342;55.250;37.668;2022-12-18T15:41:57;14.17;;;6.70;;
45368;SDS011;51342;55.250;37.668;2022-12-18T15:44:57;15.17;;;6.43;;
45368;SDS011;51342;55.250;37.668;2022-12-18T15:47:31;13.60;;;6.70;;
45368;SDS011;51342;55.250;37.668;2022-12-18T15:50:08;11.77;;;6.47;;
45368;SDS011;51342;55.250;37.668;2022-12-18T15:52:45;11.50;;;6.37;;
45368;SDS011;51342;55.250;37.668;2022-12-18T15:55:22;11.43;;;5.87;;
45368;SDS011;51342;55.250;37.668;2022-12-18T15:58:13;11.73;;;5.90;;
45368;SDS011;51342;55.250;37.668;2022-12-18T16:00:48;11.03;;;5.10;;
45368;SDS011;51342;55.250;37.668;2022-12-18T16:03:22;14.33;;;5.97;;
45368;SDS011;51342;55.250;37.668;2022-12-18T16:05:54;10.93;;;5.53;;
45368;SDS011;51342;55.250;37.668;2022-12-18T16:08:32;11.77;;;5.23;;
45368;SDS011;51342;55.250;37.668;2022-12-18T16:11:04;8.30;;;4.53;;
45368;SDS011;51342;55.250;37.668;2022-12-18T16:13:47;10.03;;;4.80;;
45368;SDS011;51342;55.250;37.668;2022-12-18T16:16:22;11.27;;;5.10;;
45368;SDS011;51342;55.250;37.668;2022-12-18T16:18:57;10.20;;;4.97;;
45368;SDS011;51342;55.250;37.668;2022-12-18T16:21:32;12.47;;;5.80;;
45368;SDS011;51342;55.250;37.668;2022-12-18T16:24:10;9.77;;;4.90;;
45368;SDS011;51342;55.250;37.668;2022-12-18T16:26:50;11.47;;;5.80;;
45368;SDS011;51342;55.250;37.668;2022-12-18T16:29:24;7.80;;;4.23;;
45368;SDS011;51342;55.250;37.668;2022-12-18T16:32:03;11.68;;;4.75;;
45368;SDS011;51342;55.250;37.668;2022-12-18T16:34:37;10.10;;;5.37;;
45368;SDS011;51342;55.250;37.668;2022-12-18T16:37:12;9.17;;;4.90;;
45368;SDS011;51342;55.250;37.668;2022-12-18T16:39:48;9.50;;;5.20;;
45368;SDS011;51342;55.250;37.668;2022-12-18T16:42:23;9.23;;;4.67;;
45368;SDS011;51342;55.250;37.668;2022-12-18T16:44:59;10.23;;;4.53;;
45368;SDS011;51342;55.250;37.668;2022-12-18T16:47:33;8.53;;;4.30;;
45368;SDS011;51342;55.250;37.668;2022-12-18T16:50:08;9.13;;;4.33;;
45368;SDS011;51342;55.250;37.668;2022-12-18T16:52:42;8.43;;;4.60;;
45368;SDS011;51342;55.250;37.668;2022-12-18T16:55:19;7.80;;;4.27;;
45368;SDS011;51342;55.250;37.668;2022-12-18T16:57:52;6.82;;;3.38;;
45368;SDS011;51342;55.250;37.668;2022-12-18T17:00:27;8.53;;;4.60;;
45368;SDS011;51342;55.250;37.668;2022-12-18T17:03:01;8.57;;;4.10;;
45368;SDS011;51342;55.250;37.668;2022-12-18T17:05:36;7.83;;;4.23;;
45368;SDS011;51342;55.250;37.668;2022-12-18T17:08:08;10.20;;;5.00;;
45368;SDS011;51342;55.250;37.668;2022-12-18T17:10:44;6.87;;;4.10;;
45368;SDS011;51342;55.250;37.668;2022-12-18T17:13:18;8.60;;;4.13;;
45368;SDS011;51342;55.250;37.668;2022-12-18T17:16:05;8.60;;;4.40;;
45368;SDS011;51342;55.250;37.668;2022-12-18T17:18:42;6.40;;;3.87;;
45368;SDS011;51342;55.250;37.668;2022-12-18T17:21:15;8.53;;;4.40;;
45368;SDS011;51342;55.250;37.668;2022-12-18T17:23:48;7.50;;;4.27;;
45368;SDS011;51342;55.250;37.668;2022-12-18T17:26:25;7.97;;;4.80;;
45368;SDS011;51342;55.250;37.668;2022-12-18T17:29:01;7.60;;;3.80;;
45368;SDS011;51342;55.250;37.668;2022-12-18T17:31:36;8.13;;;3.80;;
45368;SDS011;51342;55.250;37.668;2022-12-18T17:34:11;8.20;;;4.43;;
45368;SDS011;51342;55.250;37.668;2022-12-18T17:36:46;13.13;;;4.20;;
45368;SDS011;51342;55.250;37.668;2022-12-18T17:39:24;8.70;;;4.20;;
45368;SDS011;51342;55.250;37.668;2022-12-18T17:42:01;8.37;;;4.00;;
45368;SDS011;51342;55.250;37.668;2022-12-18T17:44:36;8.67;;;4.60;;
45368;SDS011;51342;55.250;37.668;2022-12-18T17:47:10;6.77;;;3.97;;
45368;SDS011;51342;55.250;37.668;2022-12-18T17:49:46;9.03;;;4.73;;
45368;SDS011;51342;55.250;37.668;2022-12-18T17:52:22;8.43;;;4.03;;
45368;SDS011;51342;55.250;37.668;2022-12-18T17:54:55;9.73;;;4.50;;
45368;SDS011;51342;55.250;37.668;2022-12-18T17:57:28;8.50;;;5.00;;
45368;SDS011;51342;55.250;37.668;2022-12-18T18:00:03;9.33;;;4.63;;
45368;SDS011;51342;55.250;37.668;2022-12-18T18:02:40;8.53;;;4.30;;
45368;SDS011;51342;55.250;37.668;2022-12-18T18:05:21;8.83;;;4.63;;
45368;SDS011;51342;55.250;37.668;2022-12-18T18:07:55;8.90;;;4.95;;
45368;SDS011;51342;55.250;37.668;2022-12-18T18:13:19;8.03;;;4.43;;
45368;SDS011;51342;55.250;37.668;2022-12-18T18:16:13;9.20;;;4.63;;
45368;SDS011;51342;55.250;37.668;2022-12-18T18:18:47;9.53;;;4.33;;
45368;SDS011;51342;55.250;37.668;2022-12-18T18:21:22;9.27;;;4.70;;
45368;SDS011;51342;55.250;37.668;2022-12-18T18:24:01;9.03;;;5.20;;
45368;SDS011;51342;55.250;37.668;2022-12-18T18:26:35;7.88;;;4.60;;
45368;SDS011;51342;55.250;37.668;2022-12-18T18:29:12;8.27;;;4.47;;
45368;SDS011;51342;55.250;37.668;2022-12-18T18:31:48;8.63;;;5.25;;
45368;SDS011;51342;55.250;37.668;2022-12-18T18:34:23;8.47;;;4.20;;
45368;SDS011;51342;55.250;37.668;2022-12-18T18:37:01;8.50;;;4.60;;
45368;SDS011;51342;55.250;37.668;2022-12-18T18:39:35;10.47;;;4.90;;
45368;SDS011;51342;55.250;37.668;2022-12-18T18:42:08;10.00;;;4.67;;
45368;SDS011;51342;55.250;37.668;2022-12-18T18:44:42;9.03;;;4.90;;
45368;SDS011;51342;55.250;37.668;2022-12-18T18:47:18;8.10;;;5.00;;
45368;SDS011;51342;55.250;37.668;2022-12-18T18:49:50;8.73;;;4.90;;
45368;SDS011;51342;55.250;37.668;2022-12-18T18:52:22;9.53;;;4.17;;
45368;SDS011;51342;55.250;37.668;2022-12-18T18:54:57;11.67;;;5.47;;
45368;SDS011;51342;55.250;37.668;2022-12-18T19:00:02;12.63;;;6.13;;
45368;SDS011;51342;55.250;37.668;2022-12-18T19:02:38;15.53;;;7.37;;
45368;SDS011;51342;55.250;37.668;2022-12-18T19:05:13;14.27;;;7.80;;
45368;SDS011;51342;55.250;37.668;2022-12-18T19:07:48;12.30;;;6.57;;
45368;SDS011;51342;55.250;37.668;2022-12-18T19:10:20;11.67;;;6.17;;
45368;SDS011;51342;55.250;37.668;2022-12-18T19:12:53;15.03;;;6.43;;
45368;SDS011;51342;55.250;37.668;2022-12-18T19:15:43;10.90;;;6.13;;
45368;SDS011;51342;55.250;37.668;2022-12-18T19:18:19;11.37;;;5.80;;
45368;SDS011;51342;55.250;37.668;2022-12-18T19:20:55;11.53;;;5.63;;
45368;SDS011;51342;55.250;37.668;2022-12-18T19:23:32;11.30;;;5.20;;
45368;SDS011;51342;55.250;37.668;2022-12-18T19:26:07;12.17;;;5.97;;
45368;SDS011;51342;55.250;37.668;2022-12-18T19:28:40;12.83;;;6.47;;
45368;SDS011;51342;55.250;37.668;2022-12-18T19:31:14;11.43;;;5.20;;
45368;SDS011;51342;55.250;37.668;2022-12-18T19:33:49;14.17;;;6.27;;
45368;SDS011;51342;55.250;37.668;2022-12-18T19:36:22;9.83;;;5.40;;
45368;SDS011;51342;55.250;37.668;2022-12-18T19:41:31;9.87;;;5.03;;
45368;SDS011;51342;55.250;37.668;2022-12-18T19:44:05;13.37;;;6.27;;
45368;SDS011;51342;55.250;37.668;2022-12-18T19:46:39;12.57;;;5.40;;
45368;SDS011;51342;55.250;37.668;2022-12-18T19:49:16;15.53;;;7.00;;
45368;SDS011;51342;55.250;37.668;2022-12-18T19:51:48;11.03;;;6.07;;
45368;SDS011;51342;55.250;37.668;2022-12-18T19:54:21;16.30;;;6.80;;
45368;SDS011;51342;55.250;37.668;2022-12-18T19:56:57;13.27;;;6.57;;
45368;SDS011;51342;55.250;37.668;2022-12-18T19:59:29;16.43;;;7.07;;
45368;SDS011;51342;55.250;37.668;2022-12-18T20:02:02;13.87;;;6.40;;
45368;SDS011;51342;55.250;37.668;2022-12-18T20:04:35;16.30;;;6.57;;
45368;SDS011;51342;55.250;37.668;2022-12-18T20:07:10;15.90;;;7.10;;
45368;SDS011;51342;55.250;37.668;2022-12-18T20:09:43;14.90;;;7.03;;
45368;SDS011;51342;55.250;37.668;2022-12-18T20:12:15;17.57;;;6.83;;
45368;SDS011;51342;55.250;37.668;2022-12-18T20:14:48;19.50;;;7.43;;
45368;SDS011;51342;55.250;37.668;2022-12-18T20:17:20;16.10;;;7.20;;
45368;SDS011;51342;55.250;37.668;2022-12-18T20:19:52;18.03;;;7.37;;
45368;SDS011;51342;55.250;37.668;2022-12-18T20:22:23;18.07;;;7.57;;
45368;SDS011;51342;55.250;37.668;2022-12-18T20:24:56;19.80;;;7.57;;
45368;SDS011;51342;55.250;37.668;2022-12-18T20:27:29;16.77;;;8.17;;
45368;SDS011;51342;55.250;37.668;2022-12-18T20:30:02;19.63;;;8.00;;
45368;SDS011;51342;55.250;37.668;2022-12-18T20:32:35;21.70;;;8.73;;
45368;SDS011;51342;55.250;37.668;2022-12-18T20:35:07;22.00;;;8.80;;
45368;SDS011;51342;55.250;37.668;2022-12-18T20:37:39;19.57;;;8.53;;
45368;SDS011;51342;55.250;37.668;2022-12-18T20:40:12;20.80;;;8.40;;
45368;SDS011;51342;55.250;37.668;2022-12-18T20:42:44;24.27;;;9.97;;
45368;SDS011;51342;55.250;37.668;2022-12-18T20:45:17;23.20;;;9.10;;
45368;SDS011;51342;55.250;37.668;2022-12-18T20:47:49;20.20;;;8.67;;
45368;SDS011;51342;55.250;37.668;2022-12-18T20:50:27;23.40;;;8.77;;
45368;SDS011;51342;55.250;37.668;2022-12-18T20:53:00;23.53;;;9.20;;